sensor_id;sensor_type;location;lat;lon;timestamp;pressure;altitude;pressure_sealevel;temperature;humidity
51239;BME280;38154;47.548;18.828;2024-03-07T00:02:09;75445.31;;;-145.55;100.00
51239;BME280;38154;47.548;18.828;2024-03-07T00:04:34;75463.25;;;-145.55;100.00
51239;BME280;38154;47.548;18.828;2024-03-07T00:07:02;75479.16;;;-145.55;100.00
51239;BME280;38154;47.548;18.828;2024-03-07T00:09:31;75467.22;;;-145.55;100.00
51239;BME280;38154;47.548;18.828;2024-03-07T00:11:57;75465.22;;;-145.55;100.00
51239;BME280;38154;47.548;18.828;2024-03-07T00:14:22;75471.19;;;-145.55;100.00
51239;BME280;38154;47.548;18.828;2024-03-07T00:16:52;75473.19;;;-145.55;100.00
51239;BME280;38154;47.548;18.828;2024-03-07T00:19:18;75483.16;;;-145.55;100.00
51239;BME280;38154;47.548;18.828;2024-03-07T00:21:44;75477.16;;;-145.55;100.00
51239;BME280;38154;47.548;18.828;2024-03-07T00:24:09;75477.16;;;-145.55;100.00
51239;BME280;38154;47.548;18.828;2024-03-07T00:26:35;75463.25;;;-145.55;100.00
51239;BME280;38154;47.548;18.828;2024-03-07T00:29:01;75457.28;;;-145.55;100.00
51239;BME280;38154;47.548;18.828;2024-03-07T00:31:27;75465.22;;;-145.55;100.00
51239;BME280;38154;47.548;18.828;2024-03-07T00:33:55;75459.25;;;-145.55;100.00
51239;BME280;38154;47.548;18.828;2024-03-07T00:36:22;75451.31;;;-145.55;100.00
51239;BME280;38154;47.548;18.828;2024-03-07T00:38:47;75449.31;;;-145.55;100.00
51239;BME280;38154;47.548;18.828;2024-03-07T00:41:13;75453.28;;;-145.55;100.00
51239;BME280;38154;47.548;18.828;2024-03-07T00:43:39;75453.28;;;-145.55;100.00
51239;BME280;38154;47.548;18.828;2024-03-07T00:46:06;75449.31;;;-145.55;100.00
51239;BME280;38154;47.548;18.828;2024-03-07T00:48:32;75457.28;;;-145.55;100.00
51239;BME280;38154;47.548;18.828;2024-03-07T00:50:58;75445.31;;;-145.55;100.00
51239;BME280;38154;47.548;18.828;2024-03-07T00:53:23;75439.34;;;-145.55;100.00
51239;BME280;38154;47.548;18.828;2024-03-07T00:55:49;75447.31;;;-145.55;100.00
51239;BME280;38154;47.548;18.828;2024-03-07T00:58:15;75439.34;;;-145.55;100.00
51239;BME280;38154;47.548;18.828;2024-03-07T01:00:40;75439.34;;;-145.55;100.00
51239;BME280;38154;47.548;18.828;2024-03-07T01:03:09;75435.38;;;-145.55;100.00
51239;BME280;38154;47.548;18.828;2024-03-07T01:05:36;75423.44;;;-145.55;100.00
51239;BME280;38154;47.548;18.828;2024-03-07T01:08:03;75433.38;;;-145.55;100.00
51239;BME280;38154;47.548;18.828;2024-03-07T01:10:28;75435.38;;;-145.55;100.00
51239;BME280;38154;47.548;18.828;2024-03-07T01:12:54;75443.34;;;-145.55;100.00
51239;BME280;38154;47.548;18.828;2024-03-07T01:15:23;75437.38;;;-145.55;100.00
51239;BME280;38154;47.548;18.828;2024-03-07T01:17:48;75433.38;;;-145.55;100.00
51239;BME280;38154;47.548;18.828;2024-03-07T01:20:14;75437.38;;;-145.55;100.00
51239;BME280;38154;47.548;18.828;2024-03-07T01:22:40;75441.34;;;-145.55;100.00
51239;BME280;38154;47.548;18.828;2024-03-07T01:25:06;75439.34;;;-145.55;100.00
51239;BME280;38154;47.548;18.828;2024-03-07T01:27:32;75441.34;;;-145.55;100.00
51239;BME280;38154;47.548;18.828;2024-03-07T01:29:59;75445.31;;;-145.55;100.00
51239;BME280;38154;47.548;18.828;2024-03-07T01:32:27;75443.34;;;-145.55;100.00
51239;BME280;38154;47.548;18.828;2024-03-07T01:34:54;75449.31;;;-145.55;100.00
51239;BME280;38154;47.548;18.828;2024-03-07T01:37:20;75453.28;;;-145.55;100.00
51239;BME280;38154;47.548;18.828;2024-03-07T01:39:46;75443.34;;;-145.55;100.00
51239;BME280;38154;47.548;18.828;2024-03-07T01:42:12;75447.31;;;-145.55;100.00
51239;BME280;38154;47.548;18.828;2024-03-07T01:44:38;75441.34;;;-145.55;100.00
51239;BME280;38154;47.548;18.828;2024-03-07T01:47:07;75437.38;;;-145.55;100.00
51239;BME280;38154;47.548;18.828;2024-03-07T01:49:33;75437.38;;;-145.55;100.00
51239;BME280;38154;47.548;18.828;2024-03-07T01:51:58;75423.44;;;-145.55;100.00
51239;BME280;38154;47.548;18.828;2024-03-07T01:54:25;75437.38;;;-145.55;100.00
51239;BME280;38154;47.548;18.828;2024-03-07T01:56:51;75443.34;;;-145.55;100.00
51239;BME280;38154;47.548;18.828;2024-03-07T01:59:17;75455.28;;;-145.55;99.88
51239;BME280;38154;47.548;18.828;2024-03-07T02:01:46;75459.25;;;-145.55;100.00
51239;BME280;38154;47.548;18.828;2024-03-07T02:04:12;75463.25;;;-145.55;100.00
51239;BME280;38154;47.548;18.828;2024-03-07T02:06:38;75463.25;;;-145.55;100.00
51239;BME280;38154;47.548;18.828;2024-03-07T02:09:03;75467.22;;;-145.55;100.00
51239;BME280;38154;47.548;18.828;2024-03-07T02:11:31;75467.22;;;-145.55;100.00
51239;BME280;38154;47.548;18.828;2024-03-07T02:13:56;75459.25;;;-145.55;100.00
51239;BME280;38154;47.548;18.828;2024-03-07T02:16:22;75467.22;;;-145.55;100.00
51239;BME280;38154;47.548;18.828;2024-03-07T02:18:48;75481.16;;;-145.55;100.00
51239;BME280;38154;47.548;18.828;2024-03-07T02:21:14;75469.22;;;-145.55;100.00
51239;BME280;38154;47.548;18.828;2024-03-07T02:23:40;75475.19;;;-145.55;100.00
51239;BME280;38154;47.548;18.828;2024-03-07T02:26:06;75477.16;;;-145.55;100.00
51239;BME280;38154;47.548;18.828;2024-03-07T02:28:34;75483.16;;;-145.55;100.00
51239;BME280;38154;47.548;18.828;2024-03-07T02:31:00;75477.16;;;-145.55;100.00
51239;BME280;38154;47.548;18.828;2024-03-07T02:33:26;75465.22;;;-145.55;99.76
51239;BME280;38154;47.548;18.828;2024-03-07T02:35:52;75469.22;;;-145.55;99.07
51239;BME280;38154;47.548;18.828;2024-03-07T02:38:18;75455.28;;;-145.55;98.13
51239;BME280;38154;47.548;18.828;2024-03-07T02:40:45;75467.22;;;-145.55;97.63
51239;BME280;38154;47.548;18.828;2024-03-07T02:43:12;75479.16;;;-145.55;97.72
51239;BME280;38154;47.548;18.828;2024-03-07T02:45:37;75457.28;;;-145.55;96.06
51239;BME280;38154;47.548;18.828;2024-03-07T02:48:03;75449.31;;;-145.55;96.01
51239;BME280;38154;47.548;18.828;2024-03-07T02:50:30;75459.25;;;-145.55;95.77
51239;BME280;38154;47.548;18.828;2024-03-07T02:52:56;75471.19;;;-145.55;95.84
51239;BME280;38154;47.548;18.828;2024-03-07T02:55:22;75475.19;;;-145.55;96.17
51239;BME280;38154;47.548;18.828;2024-03-07T02:57:47;75485.13;;;-145.55;96.15
51239;BME280;38154;47.548;18.828;2024-03-07T03:00:13;75495.09;;;-145.55;96.68
51239;BME280;38154;47.548;18.828;2024-03-07T03:02:45;75501.06;;;-145.55;96.86
51239;BME280;38154;47.548;18.828;2024-03-07T03:05:11;75514.97;;;-145.55;97.75
51239;BME280;38154;47.548;18.828;2024-03-07T03:07:36;75518.97;;;-145.55;97.34
51239;BME280;38154;47.548;18.828;2024-03-07T03:10:02;75526.94;;;-145.55;97.21
51239;BME280;38154;47.548;18.828;2024-03-07T03:12:32;75532.91;;;-145.55;97.71
51239;BME280;38154;47.548;18.828;2024-03-07T03:14:58;75538.88;;;-145.55;97.24
51239;BME280;38154;47.548;18.828;2024-03-07T03:17:24;75528.91;;;-145.55;96.17
51239;BME280;38154;47.548;18.828;2024-03-07T03:19:49;75548.81;;;-145.55;96.67
51239;BME280;38154;47.548;18.828;2024-03-07T03:22:16;75554.78;;;-145.55;97.23
51239;BME280;38154;47.548;18.828;2024-03-07T03:24:44;75566.72;;;-145.55;97.20
51239;BME280;38154;47.548;18.828;2024-03-07T03:27:09;75580.66;;;-145.55;97.73
51239;BME280;38154;47.548;18.828;2024-03-07T03:29:36;75580.66;;;-145.55;97.47
51239;BME280;38154;47.548;18.828;2024-03-07T03:32:01;75584.63;;;-145.55;97.93
51239;BME280;38154;47.548;18.828;2024-03-07T03:34:27;75582.66;;;-145.55;98.01
51239;BME280;38154;47.548;18.828;2024-03-07T03:36:53;75592.59;;;-145.55;98.04
51239;BME280;38154;47.548;18.828;2024-03-07T03:39:18;75594.59;;;-145.55;98.13
51239;BME280;38154;47.548;18.828;2024-03-07T03:41:46;75598.56;;;-145.55;98.65
51239;BME280;38154;47.548;18.828;2024-03-07T03:44:11;75610.50;;;-145.55;100.00
51239;BME280;38154;47.548;18.828;2024-03-07T03:46:37;75612.50;;;-145.55;99.88
51239;BME280;38154;47.548;18.828;2024-03-07T03:49:03;75610.50;;;-145.55;99.83
51239;BME280;38154;47.548;18.828;2024-03-07T03:51:30;75622.44;;;-145.55;100.00
51239;BME280;38154;47.548;18.828;2024-03-07T03:53:56;75628.44;;;-145.55;100.00
51239;BME280;38154;47.548;18.828;2024-03-07T03:56:21;75638.38;;;-145.55;100.00
51239;BME280;38154;47.548;18.828;2024-03-07T03:58:47;75644.34;;;-145.55;100.00
51239;BME280;38154;47.548;18.828;2024-03-07T04:01:12;75646.34;;;-145.55;100.00
51239;BME280;38154;47.548;18.828;2024-03-07T04:03:40;75628.44;;;-145.55;100.00
51239;BME280;38154;47.548;18.828;2024-03-07T04:06:05;75618.47;;;-145.55;100.00
51239;BME280;38154;47.548;18.828;2024-03-07T04:08:32;75620.47;;;-145.55;100.00
51239;BME280;38154;47.548;18.828;2024-03-07T04:10:58;75604.53;;;-145.55;99.69
51239;BME280;38154;47.548;18.828;2024-03-07T04:13:23;75614.50;;;-145.55;99.42
51239;BME280;38154;47.548;18.828;2024-03-07T04:15:49;75604.53;;;-145.55;98.76
51239;BME280;38154;47.548;18.828;2024-03-07T04:18:15;75612.50;;;-145.55;98.74
51239;BME280;38154;47.548;18.828;2024-03-07T04:20:41;75618.47;;;-145.55;98.66
51239;BME280;38154;47.548;18.828;2024-03-07T04:23:09;75610.50;;;-145.55;98.44
51239;BME280;38154;47.548;18.828;2024-03-07T04:25:35;75614.50;;;-145.55;98.85
51239;BME280;38154;47.548;18.828;2024-03-07T04:28:01;75596.59;;;-145.55;97.43
51239;BME280;38154;47.548;18.828;2024-03-07T04:30:26;75590.59;;;-145.55;97.23
51239;BME280;38154;47.548;18.828;2024-03-07T04:32:52;75602.56;;;-145.55;97.12
51239;BME280;38154;47.548;18.828;2024-03-07T04:35:18;75618.47;;;-145.55;97.89
51239;BME280;38154;47.548;18.828;2024-03-07T04:37:43;75620.47;;;-145.55;99.03
51239;BME280;38154;47.548;18.828;2024-03-07T04:40:10;75608.53;;;-145.55;99.31
51239;BME280;38154;47.548;18.828;2024-03-07T04:45:08;75630.41;;;-145.55;100.00
51239;BME280;38154;47.548;18.828;2024-03-07T04:47:36;75640.38;;;-145.55;100.00
51239;BME280;38154;47.548;18.828;2024-03-07T04:50:02;75644.34;;;-145.55;100.00
51239;BME280;38154;47.548;18.828;2024-03-07T04:52:27;75642.34;;;-145.55;100.00
51239;BME280;38154;47.548;18.828;2024-03-07T04:54:53;75644.34;;;-145.55;100.00
51239;BME280;38154;47.548;18.828;2024-03-07T04:57:20;75646.34;;;-145.55;100.00
51239;BME280;38154;47.548;18.828;2024-03-07T04:59:46;75652.31;;;-145.55;100.00
51239;BME280;38154;47.548;18.828;2024-03-07T05:02:11;75652.31;;;-145.55;100.00
51239;BME280;38154;47.548;18.828;2024-03-07T05:04:37;75660.25;;;-145.55;100.00
51239;BME280;38154;47.548;18.828;2024-03-07T05:07:03;75640.38;;;-145.55;100.00
51239;BME280;38154;47.548;18.828;2024-03-07T05:09:28;75616.47;;;-145.55;100.00
51239;BME280;38154;47.548;18.828;2024-03-07T05:11:54;75606.53;;;-145.55;100.00
51239;BME280;38154;47.548;18.828;2024-03-07T05:14:20;75598.56;;;-145.55;100.00
51239;BME280;38154;47.548;18.828;2024-03-07T05:16:47;75588.63;;;-145.55;100.00
51239;BME280;38154;47.548;18.828;2024-03-07T05:19:33;75572.69;;;-145.55;100.00
51239;BME280;38154;47.548;18.828;2024-03-07T05:21:59;75564.75;;;-145.55;100.00
51239;BME280;38154;47.548;18.828;2024-03-07T05:24:24;75574.69;;;-145.55;100.00
51239;BME280;38154;47.548;18.828;2024-03-07T05:26:50;75576.69;;;-145.55;100.00
51239;BME280;38154;47.548;18.828;2024-03-07T05:29:18;75558.75;;;-145.55;100.00
51239;BME280;38154;47.548;18.828;2024-03-07T05:31:44;75534.88;;;-145.55;100.00
51239;BME280;38154;47.548;18.828;2024-03-07T05:34:12;75518.97;;;-145.55;99.74
51239;BME280;38154;47.548;18.828;2024-03-07T05:36:38;75485.13;;;-145.55;98.73
51239;BME280;38154;47.548;18.828;2024-03-07T05:39:13;75475.19;;;-145.55;97.67
51239;BME280;38154;47.548;18.828;2024-03-07T05:41:40;75449.31;;;-145.55;96.07
51239;BME280;38154;47.548;18.828;2024-03-07T05:44:06;75431.41;;;-145.55;96.00
51239;BME280;38154;47.548;18.828;2024-03-07T05:46:35;75407.50;;;-145.55;95.32
51239;BME280;38154;47.548;18.828;2024-03-07T05:49:03;75395.56;;;-145.55;93.87
51239;BME280;38154;47.548;18.828;2024-03-07T05:51:29;75383.63;;;-145.55;93.70
51239;BME280;38154;47.548;18.828;2024-03-07T05:53:55;75383.63;;;-145.55;94.10
51239;BME280;38154;47.548;18.828;2024-03-07T05:56:20;75375.69;;;-145.55;93.83
51239;BME280;38154;47.548;18.828;2024-03-07T05:58:46;75377.66;;;-145.55;94.08
51239;BME280;38154;47.548;18.828;2024-03-07T06:01:12;75381.66;;;-145.55;94.10
51239;BME280;38154;47.548;18.828;2024-03-07T06:03:37;75373.69;;;-145.55;94.01
51239;BME280;38154;47.548;18.828;2024-03-07T06:06:03;75351.78;;;-145.55;93.96
51239;BME280;38154;47.548;18.828;2024-03-07T06:08:32;75345.81;;;-145.55;93.31
51239;BME280;38154;47.548;18.828;2024-03-07T06:10:58;75321.94;;;-145.55;92.23
51239;BME280;38154;47.548;18.828;2024-03-07T06:13:23;75310.00;;;-145.55;92.26
51239;BME280;38154;47.548;18.828;2024-03-07T06:15:49;75304.03;;;-145.55;91.09
51239;BME280;38154;47.548;18.828;2024-03-07T06:18:15;75314.00;;;-145.55;91.97
51239;BME280;38154;47.548;18.828;2024-03-07T06:20:40;75329.91;;;-145.55;92.91
51239;BME280;38154;47.548;18.828;2024-03-07T06:23:06;75312.00;;;-145.55;92.70
51239;BME280;38154;47.548;18.828;2024-03-07T06:25:32;75272.19;;;-145.55;91.29
51239;BME280;38154;47.548;18.828;2024-03-07T06:28:00;75262.25;;;-145.55;90.60
51239;BME280;38154;47.548;18.828;2024-03-07T06:30:34;75272.19;;;-145.55;91.01
51239;BME280;38154;47.548;18.828;2024-03-07T06:33:01;75238.38;;;-145.55;90.07
51239;BME280;38154;47.548;18.828;2024-03-07T06:35:27;75232.41;;;-145.55;87.75
51239;BME280;38154;47.548;18.828;2024-03-07T06:37:52;75238.38;;;-145.55;88.28
51239;BME280;38154;47.548;18.828;2024-03-07T06:40:18;75268.22;;;-145.55;88.57
51239;BME280;38154;47.548;18.828;2024-03-07T06:42:48;75272.19;;;-145.55;88.55
51239;BME280;38154;47.548;18.828;2024-03-07T06:45:13;75282.16;;;-145.55;88.76
51239;BME280;38154;47.548;18.828;2024-03-07T06:47:39;75290.09;;;-145.55;88.43
51239;BME280;38154;47.548;18.828;2024-03-07T06:50:05;75282.16;;;-145.55;88.94
51239;BME280;38154;47.548;18.828;2024-03-07T06:52:34;75278.16;;;-145.55;88.77
51239;BME280;38154;47.548;18.828;2024-03-07T06:54:59;75274.19;;;-145.55;88.45
51239;BME280;38154;47.548;18.828;2024-03-07T06:57:25;75282.16;;;-145.55;88.64
51239;BME280;38154;47.548;18.828;2024-03-07T06:59:51;75286.13;;;-145.55;88.89
51239;BME280;38154;47.548;18.828;2024-03-07T07:02:17;75294.09;;;-145.55;89.62
51239;BME280;38154;47.548;18.828;2024-03-07T07:04:42;75296.06;;;-145.55;90.55
51239;BME280;38154;47.548;18.828;2024-03-07T07:07:10;75292.09;;;-145.55;89.90
51239;BME280;38154;47.548;18.828;2024-03-07T07:09:38;75286.13;;;-145.55;89.51
51239;BME280;38154;47.548;18.828;2024-03-07T07:12:04;75276.19;;;-145.55;89.06
51239;BME280;38154;47.548;18.828;2024-03-07T07:14:29;75260.25;;;-145.55;88.85
51239;BME280;38154;47.548;18.828;2024-03-07T07:16:55;75234.38;;;-145.55;88.03
51239;BME280;38154;47.548;18.828;2024-03-07T07:19:25;75220.47;;;-145.55;88.44
51239;BME280;38154;47.548;18.828;2024-03-07T07:21:51;75232.41;;;-145.55;88.25
51239;BME280;38154;47.548;18.828;2024-03-07T07:24:22;75234.38;;;-145.55;87.87
51239;BME280;38154;47.548;18.828;2024-03-07T07:26:49;75242.34;;;-145.55;87.83
51239;BME280;38154;47.548;18.828;2024-03-07T07:29:15;75254.28;;;-145.55;87.58
51239;BME280;38154;47.548;18.828;2024-03-07T07:31:41;75270.19;;;-145.55;88.33
51239;BME280;38154;47.548;18.828;2024-03-07T07:34:07;75280.16;;;-145.55;87.46
51239;BME280;38154;47.548;18.828;2024-03-07T07:36:33;75286.13;;;-145.55;87.93
51239;BME280;38154;47.548;18.828;2024-03-07T07:38:59;75302.03;;;-145.55;89.15
51239;BME280;38154;47.548;18.828;2024-03-07T07:41:25;75325.94;;;-145.55;89.88
51239;BME280;38154;47.548;18.828;2024-03-07T07:43:50;75325.94;;;-145.55;90.71
51239;BME280;38154;47.548;18.828;2024-03-07T07:46:17;75292.09;;;-145.55;89.45
51239;BME280;38154;47.548;18.828;2024-03-07T07:48:43;75292.09;;;-145.55;88.79
51239;BME280;38154;47.548;18.828;2024-03-07T07:51:09;75290.09;;;-145.55;88.98
51239;BME280;38154;47.548;18.828;2024-03-07T07:53:35;75298.06;;;-145.55;89.13
51239;BME280;38154;47.548;18.828;2024-03-07T07:56:00;75314.00;;;-145.55;89.93
51239;BME280;38154;47.548;18.828;2024-03-07T07:58:26;75319.94;;;-145.55;82.90
51239;BME280;38154;47.548;18.828;2024-03-07T08:00:52;75317.97;;;-145.55;84.27
51239;BME280;38154;47.548;18.828;2024-03-07T08:03:17;75319.94;;;-145.55;80.12
51239;BME280;38154;47.548;18.828;2024-03-07T08:05:43;75343.84;;;-145.55;82.79
51239;BME280;38154;47.548;18.828;2024-03-07T08:08:10;75357.75;;;-145.55;83.75
51239;BME280;38154;47.548;18.828;2024-03-07T08:10:39;75357.75;;;-145.55;81.98
51239;BME280;38154;47.548;18.828;2024-03-07T08:13:05;75339.84;;;-145.55;72.45
51239;BME280;38154;47.548;18.828;2024-03-07T08:15:35;75329.91;;;-145.55;71.24
51239;BME280;38154;47.548;18.828;2024-03-07T08:18:02;75343.84;;;-145.55;68.68
51239;BME280;38154;47.548;18.828;2024-03-07T08:20:33;75345.81;;;-145.55;70.48
51239;BME280;38154;47.548;18.828;2024-03-07T08:23:00;75339.84;;;-145.55;71.22
51239;BME280;38154;47.548;18.828;2024-03-07T08:25:27;75347.81;;;-145.55;70.16
51239;BME280;38154;47.548;18.828;2024-03-07T08:27:54;75335.88;;;-145.55;70.89
51239;BME280;38154;47.548;18.828;2024-03-07T08:30:21;75329.91;;;-145.55;73.09
51239;BME280;38154;47.548;18.828;2024-03-07T08:32:48;75331.91;;;-145.55;68.68
51239;BME280;38154;47.548;18.828;2024-03-07T08:35:16;75331.91;;;-145.55;68.35
51239;BME280;38154;47.548;18.828;2024-03-07T08:37:42;75333.88;;;-145.55;69.10
51239;BME280;38154;47.548;18.828;2024-03-07T08:40:09;75345.81;;;-145.55;67.67
51239;BME280;38154;47.548;18.828;2024-03-07T08:42:36;75331.91;;;-145.55;67.95
51239;BME280;38154;47.548;18.828;2024-03-07T08:45:02;75300.06;;;-145.55;69.36
51239;BME280;38154;47.548;18.828;2024-03-07T08:47:33;75274.19;;;-145.55;67.66
51239;BME280;38154;47.548;18.828;2024-03-07T08:49:59;75266.22;;;-145.55;65.93
51239;BME280;38154;47.548;18.828;2024-03-07T08:52:25;75266.22;;;-145.55;65.35
51239;BME280;38154;47.548;18.828;2024-03-07T08:54:51;75272.19;;;-145.55;66.62
51239;BME280;38154;47.548;18.828;2024-03-07T08:57:17;75256.28;;;-145.55;64.98
51239;BME280;38154;47.548;18.828;2024-03-07T08:59:43;75256.28;;;-145.55;64.84
51239;BME280;38154;47.548;18.828;2024-03-07T09:02:09;75242.34;;;-145.55;66.24
51239;BME280;38154;47.548;18.828;2024-03-07T09:04:35;75230.41;;;-145.55;65.66
51239;BME280;38154;47.548;18.828;2024-03-07T09:07:01;75234.38;;;-145.55;64.48
51239;BME280;38154;47.548;18.828;2024-03-07T09:09:27;75246.31;;;-145.55;62.97
51239;BME280;38154;47.548;18.828;2024-03-07T09:11:53;75274.19;;;-145.55;63.28
51239;BME280;38154;47.548;18.828;2024-03-07T09:14:18;75286.13;;;-145.55;63.83
51239;BME280;38154;47.548;18.828;2024-03-07T09:16:44;75288.13;;;-145.55;64.61
51239;BME280;38154;47.548;18.828;2024-03-07T09:19:11;75302.03;;;-145.55;64.63
51239;BME280;38154;47.548;18.828;2024-03-07T09:21:42;75296.06;;;-145.55;64.93
51239;BME280;38154;47.548;18.828;2024-03-07T09:24:07;75286.13;;;-145.55;63.80
51239;BME280;38154;47.548;18.828;2024-03-07T09:26:33;75270.19;;;-145.55;65.11
51239;BME280;38154;47.548;18.828;2024-03-07T09:29:02;75256.28;;;-145.55;65.44
51239;BME280;38154;47.548;18.828;2024-03-07T09:31:34;75278.16;;;-145.55;63.85
51239;BME280;38154;47.548;18.828;2024-03-07T09:33:59;75248.31;;;-145.55;64.11
51239;BME280;38154;47.548;18.828;2024-03-07T09:36:25;75240.34;;;-145.55;63.36
51239;BME280;38154;47.548;18.828;2024-03-07T09:38:51;75266.22;;;-145.55;63.37
51239;BME280;38154;47.548;18.828;2024-03-07T09:41:18;75250.31;;;-145.55;63.02
51239;BME280;38154;47.548;18.828;2024-03-07T09:43:51;75250.31;;;-145.55;64.67
51239;BME280;38154;47.548;18.828;2024-03-07T09:46:21;75278.16;;;-145.55;63.64
51239;BME280;38154;47.548;18.828;2024-03-07T09:48:47;75314.00;;;-145.55;63.85
51239;BME280;38154;47.548;18.828;2024-03-07T09:51:14;75304.03;;;-145.55;64.87
51239;BME280;38154;47.548;18.828;2024-03-07T09:53:42;75288.13;;;-145.55;65.13
51239;BME280;38154;47.548;18.828;2024-03-07T09:56:10;75286.13;;;-145.55;65.18
51239;BME280;38154;47.548;18.828;2024-03-07T09:58:39;75300.06;;;-145.55;64.95
51239;BME280;38154;47.548;18.828;2024-03-07T10:01:05;75280.16;;;-145.55;64.07
51239;BME280;38154;47.548;18.828;2024-03-07T10:03:35;75270.19;;;-145.55;63.22
51239;BME280;38154;47.548;18.828;2024-03-07T10:06:01;75252.28;;;-145.55;62.97
51239;BME280;38154;47.548;18.828;2024-03-07T10:08:26;75262.25;;;-145.55;62.52
51239;BME280;38154;47.548;18.828;2024-03-07T10:10:53;75238.38;;;-145.55;62.73
51239;BME280;38154;47.548;18.828;2024-03-07T10:13:20;75238.38;;;-145.55;63.01
51239;BME280;38154;47.548;18.828;2024-03-07T10:15:47;75230.41;;;-145.55;61.81
51239;BME280;38154;47.548;18.828;2024-03-07T10:18:14;75230.41;;;-145.55;62.65
51239;BME280;38154;47.548;18.828;2024-03-07T10:20:42;75204.53;;;-145.55;61.56
51239;BME280;38154;47.548;18.828;2024-03-07T10:23:08;75186.63;;;-145.55;60.78
51239;BME280;38154;47.548;18.828;2024-03-07T10:25:33;75184.63;;;-145.55;60.41
51239;BME280;38154;47.548;18.828;2024-03-07T10:27:59;75206.53;;;-145.55;60.22
51239;BME280;38154;47.548;18.828;2024-03-07T10:30:26;75220.47;;;-145.55;61.16
51239;BME280;38154;47.548;18.828;2024-03-07T10:32:55;75200.56;;;-145.55;60.52
51239;BME280;38154;47.548;18.828;2024-03-07T10:35:21;75192.59;;;-145.55;62.29
51239;BME280;38154;47.548;18.828;2024-03-07T10:37:48;75170.72;;;-145.55;62.59
51239;BME280;38154;47.548;18.828;2024-03-07T10:40:14;75146.81;;;-145.55;59.69
51239;BME280;38154;47.548;18.828;2024-03-07T10:42:46;75122.94;;;-145.55;60.69
51239;BME280;38154;47.548;18.828;2024-03-07T10:45:18;75105.03;;;-145.55;59.46
51239;BME280;38154;47.548;18.828;2024-03-07T10:47:53;75130.91;;;-145.55;58.57
51239;BME280;38154;47.548;18.828;2024-03-07T10:50:29;75166.72;;;-145.55;59.52
51239;BME280;38154;47.548;18.828;2024-03-07T10:55:43;75146.81;;;-145.55;61.51
51239;BME280;38154;47.548;18.828;2024-03-07T10:58:14;75182.66;;;-145.55;60.76
51239;BME280;38154;47.548;18.828;2024-03-07T11:00:43;75194.59;;;-145.55;61.26
51239;BME280;38154;47.548;18.828;2024-03-07T11:03:11;75184.63;;;-145.55;62.68
51239;BME280;38154;47.548;18.828;2024-03-07T11:05:37;75182.66;;;-145.55;61.06
51239;BME280;38154;47.548;18.828;2024-03-07T11:08:03;75174.69;;;-145.55;61.28
51239;BME280;38154;47.548;18.828;2024-03-07T11:10:38;75152.78;;;-145.55;nan
51239;BME280;38154;47.548;18.828;2024-03-07T11:13:04;75154.78;;;-145.55;61.82
51239;BME280;38154;47.548;18.828;2024-03-07T11:15:32;75132.91;;;-145.55;59.95
51239;BME280;38154;47.548;18.828;2024-03-07T11:17:58;75118.97;;;-145.55;59.91
51239;BME280;38154;47.548;18.828;2024-03-07T11:20:33;75111.00;;;-145.55;59.64
51239;BME280;38154;47.548;18.828;2024-03-07T11:22:59;75113.00;;;-145.55;58.20
51239;BME280;38154;47.548;18.828;2024-03-07T11:25:26;75116.97;;;-145.55;59.35
51239;BME280;38154;47.548;18.828;2024-03-07T11:27:53;75111.00;;;-145.55;58.28
51239;BME280;38154;47.548;18.828;2024-03-07T11:30:21;75118.97;;;-145.55;60.12
51239;BME280;38154;47.548;18.828;2024-03-07T11:32:48;75118.97;;;-145.55;58.97
51239;BME280;38154;47.548;18.828;2024-03-07T11:35:15;75142.84;;;-145.55;60.24
51239;BME280;38154;47.548;18.828;2024-03-07T11:37:42;75168.72;;;-145.55;59.78
51239;BME280;38154;47.548;18.828;2024-03-07T11:40:42;75170.72;;;-145.55;60.37
51239;BME280;38154;47.548;18.828;2024-03-07T11:43:00;75186.63;;;-145.55;61.03
51239;BME280;38154;47.548;18.828;2024-03-07T11:45:30;75176.69;;;-145.55;62.75
51239;BME280;38154;47.548;18.828;2024-03-07T11:47:59;75168.72;;;-145.55;60.47
51239;BME280;38154;47.548;18.828;2024-03-07T11:50:38;75200.56;;;-145.55;62.08
51239;BME280;38154;47.548;18.828;2024-03-07T11:53:05;75176.69;;;-145.55;61.42
51239;BME280;38154;47.548;18.828;2024-03-07T11:55:34;75142.84;;;-145.55;62.34
51239;BME280;38154;47.548;18.828;2024-03-07T11:58:17;75140.84;;;-145.55;61.73
51239;BME280;38154;47.548;18.828;2024-03-07T12:00:43;75116.97;;;-145.55;61.49
51239;BME280;38154;47.548;18.828;2024-03-07T12:03:16;75091.09;;;-145.55;60.41
51239;BME280;38154;47.548;18.828;2024-03-07T12:05:44;75101.06;;;-145.55;58.68
51239;BME280;38154;47.548;18.828;2024-03-07T12:08:10;75093.09;;;-145.55;59.12
51239;BME280;38154;47.548;18.828;2024-03-07T12:10:39;75109.03;;;-145.55;58.51
51239;BME280;38154;47.548;18.828;2024-03-07T12:13:09;75111.00;;;-145.55;58.55
51239;BME280;38154;47.548;18.828;2024-03-07T12:15:37;75132.91;;;-145.55;61.01
51239;BME280;38154;47.548;18.828;2024-03-07T12:18:03;75124.94;;;-145.55;60.18
51239;BME280;38154;47.548;18.828;2024-03-07T12:20:29;75136.88;;;-145.55;61.76
51239;BME280;38154;47.548;18.828;2024-03-07T12:23:01;75150.81;;;-145.55;61.11
51239;BME280;38154;47.548;18.828;2024-03-07T12:25:31;75152.78;;;-145.55;59.79
51239;BME280;38154;47.548;18.828;2024-03-07T12:28:00;75148.81;;;-145.55;60.86
51239;BME280;38154;47.548;18.828;2024-03-07T12:30:34;75152.78;;;-145.55;60.58
51239;BME280;38154;47.548;18.828;2024-03-07T12:33:00;75140.84;;;-145.55;60.54